createdAt,value
2017-04-22T00:00:12.372Z,19.54
2017-04-22T00:01:13.140Z,19.50
2017-04-22T00:02:13.345Z,19.49
2017-04-22T00:03:12.494Z,19.50
2017-04-22T00:04:11.452Z,19.49
2017-04-22T00:05:12.470Z,19.50
2017-04-22T00:06:12.661Z,19.50
2017-04-22T00:07:09.660Z,19.50
2017-04-22T00:08:12.673Z,19.50
2017-04-22T00:09:12.238Z,19.56
2017-04-22T00:10:12.990Z,19.50
2017-04-22T00:11:12.017Z,19.50
2017-04-22T00:12:11.060Z,19.49
2017-04-22T00:13:10.915Z,19.50
2017-04-22T00:14:12.086Z,19.50
2017-04-22T00:15:12.512Z,19.52
2017-04-22T00:16:12.847Z,19.50
2017-04-22T00:17:12.424Z,19.50
2017-04-22T00:18:12.851Z,19.54
2017-04-22T00:19:11.885Z,19.49
2017-04-22T00:20:11.859Z,19.49
2017-04-22T00:21:11.906Z,19.49
2017-04-22T00:22:12.772Z,19.50
2017-04-22T00:23:10.762Z,19.49
2017-04-22T00:24:13.050Z,19.50
2017-04-22T00:25:13.567Z,19.49
2017-04-22T00:26:11.629Z,19.49
2017-04-22T00:27:13.893Z,19.49
2017-04-22T00:28:12.752Z,19.49
2017-04-22T00:29:11.774Z,19.49
2017-04-22T00:30:13.718Z,19.49
2017-04-22T00:31:11.879Z,19.49
2017-04-22T00:32:12.871Z,19.49
2017-04-22T00:33:13.735Z,19.49
2017-04-22T00:34:11.679Z,19.49
2017-04-22T00:35:11.787Z,19.49
2017-04-22T00:36:12.839Z,19.49
2017-04-22T00:37:09.816Z,19.48
2017-04-22T00:38:12.792Z,19.56
2017-04-22T00:39:11.842Z,20.01
2017-04-22T00:40:12.018Z,20.07
2017-04-22T00:41:11.980Z,20.09
2017-04-22T00:42:12.752Z,20.11
2017-04-22T00:43:11.940Z,20.12
2017-04-22T00:44:12.101Z,20.11
2017-04-22T00:45:12.775Z,20.12
2017-04-22T00:46:12.434Z,19.60
2017-04-22T00:47:13.352Z,19.56
2017-04-22T00:48:12.839Z,19.59
2017-04-22T00:49:12.790Z,19.57
2017-04-22T00:50:10.416Z,19.50
2017-04-22T00:51:12.400Z,19.50
2017-04-22T00:52:12.438Z,19.49
2017-04-22T00:53:12.844Z,19.56
2017-04-22T00:54:12.469Z,19.50
2017-04-22T00:55:13.302Z,19.49
2017-04-22T00:56:13.948Z,19.48
2017-04-22T00:57:12.233Z,19.49
2017-04-22T00:58:12.209Z,19.48
2017-04-22T00:59:13.834Z,19.49
2017-04-22T01:00:11.616Z,19.48
2017-04-22T01:01:12.218Z,19.48
2017-04-22T01:02:14.223Z,19.48
2017-04-22T01:03:14.222Z,19.49
2017-04-22T01:04:12.391Z,19.49
2017-04-22T01:05:13.121Z,19.53
2017-04-22T01:06:11.626Z,19.49
2017-04-22T01:07:13.974Z,19.50
2017-04-22T01:08:12.563Z,19.48
2017-04-22T01:09:13.403Z,19.50
2017-04-22T01:10:15.124Z,19.48
2017-04-22T01:11:13.863Z,19.52
2017-04-22T01:12:11.929Z,19.49
2017-04-22T01:13:12.415Z,19.51
2017-04-22T01:14:15.561Z,19.49
2017-04-22T01:15:14.856Z,19.50
2017-04-22T01:16:13.524Z,19.50
2017-04-22T01:17:15.990Z,19.48
2017-04-22T01:18:12.058Z,19.49
2017-04-22T01:19:12.204Z,19.49
2017-04-22T01:20:14.753Z,19.48
2017-04-22T01:21:12.400Z,19.48
2017-04-22T01:22:14.951Z,19.49
2017-04-22T01:23:12.821Z,19.48
2017-04-22T01:24:11.877Z,19.48
2017-04-22T01:25:13.810Z,19.48
2017-04-22T01:26:14.273Z,19.48
2017-04-22T01:27:12.215Z,19.48
2017-04-22T01:28:13.782Z,19.47
2017-04-22T01:29:14.705Z,19.48
2017-04-22T01:30:14.180Z,19.47
2017-04-22T01:31:12.610Z,19.47
2017-04-22T01:32:12.408Z,19.50
2017-04-22T01:33:14.084Z,19.53
2017-04-22T01:34:13.315Z,19.47
2017-04-22T01:35:12.598Z,19.48
2017-04-22T01:36:12.375Z,19.48
2017-04-22T01:37:13.292Z,19.48
2017-04-22T01:38:13.761Z,19.49
2017-04-22T01:39:12.949Z,19.48
2017-04-22T01:40:12.237Z,19.48
2017-04-22T01:41:12.771Z,19.48
2017-04-22T01:42:12.227Z,19.48
2017-04-22T01:43:12.250Z,19.48
2017-04-22T01:44:15.156Z,19.47
2017-04-22T01:45:12.252Z,19.47
2017-04-22T01:46:12.387Z,19.48
2017-04-22T01:47:11.252Z,19.47
2017-04-22T01:48:12.104Z,19.47
2017-04-22T01:49:13.077Z,19.49
2017-04-22T01:50:12.303Z,19.47
2017-04-22T01:51:12.394Z,19.48
2017-04-22T01:52:13.914Z,19.47
2017-04-22T01:53:13.656Z,19.47
2017-04-22T01:54:12.403Z,19.47
2017-04-22T01:55:13.773Z,19.47
2017-04-22T01:56:12.546Z,19.51
2017-04-22T01:57:12.846Z,19.49
2017-04-22T01:58:12.006Z,19.47
2017-04-22T01:59:13.175Z,19.50
2017-04-22T02:00:13.935Z,19.47
2017-04-22T02:01:12.656Z,19.48
2017-04-22T02:02:10.320Z,19.47
2017-04-22T02:03:12.215Z,20.01
2017-04-22T02:04:12.304Z,20.07
2017-04-22T02:05:11.317Z,20.08
2017-04-22T02:06:12.849Z,20.09
2017-04-22T02:07:12.830Z,20.10
2017-04-22T02:08:13.653Z,20.11
2017-04-22T02:09:12.810Z,20.11
2017-04-22T02:10:12.414Z,20.11
2017-04-22T02:11:14.061Z,19.58
2017-04-22T02:12:13.804Z,19.52
2017-04-22T02:13:12.296Z,19.50
2017-04-22T02:14:13.613Z,19.48
2017-04-22T02:15:11.522Z,19.49
2017-04-22T02:16:12.660Z,19.48
2017-04-22T02:17:12.638Z,19.48
2017-04-22T02:18:11.738Z,19.47
2017-04-22T02:19:13.492Z,19.49
2017-04-22T02:20:13.340Z,19.47
2017-04-22T02:21:13.440Z,19.48
2017-04-22T02:22:11.310Z,19.47
2017-04-22T02:23:12.422Z,20.00
2017-04-22T02:24:13.322Z,20.05
2017-04-22T02:25:12.934Z,19.54
2017-04-22T02:26:10.026Z,19.50
2017-04-22T02:27:10.937Z,20.02
2017-04-22T02:28:12.510Z,20.07
2017-04-22T02:29:11.803Z,20.07
2017-04-22T02:30:13.391Z,20.08
2017-04-22T02:31:13.213Z,20.09
2017-04-22T02:32:13.983Z,19.58
2017-04-22T02:33:13.635Z,19.52
2017-04-22T02:34:09.796Z,19.50
2017-04-22T02:35:13.128Z,19.49
2017-04-22T02:36:12.251Z,19.49
2017-04-22T02:37:12.393Z,19.48
2017-04-22T02:38:13.672Z,19.51
2017-04-22T02:39:13.022Z,19.47
2017-04-22T02:40:12.934Z,19.48
2017-04-22T02:41:10.919Z,19.46
2017-04-22T02:42:12.802Z,19.47
2017-04-22T02:43:12.569Z,19.47
2017-04-22T02:44:12.393Z,19.47
2017-04-22T02:45:10.954Z,19.46
2017-04-22T02:46:13.539Z,19.53
2017-04-22T02:47:13.400Z,19.47
2017-04-22T02:48:12.102Z,19.49
2017-04-22T02:49:13.780Z,19.47
2017-04-22T02:50:12.514Z,19.53
2017-04-22T02:51:10.941Z,19.46
2017-04-22T02:52:12.498Z,19.46
2017-04-22T02:53:13.241Z,19.47
2017-04-22T02:54:13.404Z,19.46
2017-04-22T02:55:13.661Z,19.52
2017-04-22T02:56:12.437Z,19.50
2017-04-22T02:57:11.207Z,19.46
2017-04-22T02:58:13.036Z,19.65
2017-04-22T02:59:12.810Z,19.51
2017-04-22T03:00:13.709Z,19.47
2017-04-22T03:01:12.493Z,19.48
2017-04-22T03:02:13.239Z,19.47
2017-04-22T03:03:12.730Z,19.47
2017-04-22T03:04:11.931Z,19.46
2017-04-22T03:05:12.171Z,19.47
2017-04-22T03:06:12.646Z,19.46
2017-04-22T03:07:11.728Z,19.46
2017-04-22T03:08:12.058Z,19.47
2017-04-22T03:09:12.979Z,19.46
2017-04-22T03:10:12.613Z,19.52
2017-04-22T03:11:12.545Z,19.47
2017-04-22T03:12:12.532Z,19.47
2017-04-22T03:13:12.220Z,19.48
2017-04-22T03:14:15.422Z,19.49
2017-04-22T03:15:13.293Z,19.49
2017-04-22T03:16:12.599Z,19.50
2017-04-22T03:17:13.591Z,19.50
2017-04-22T03:18:12.392Z,19.51
2017-04-22T03:19:12.401Z,19.51
2017-04-22T03:20:13.789Z,19.51
2017-04-22T03:21:12.327Z,19.53
2017-04-22T03:22:13.271Z,19.57
2017-04-22T03:23:13.674Z,19.52
2017-04-22T03:24:12.226Z,19.51
2017-04-22T03:25:12.406Z,19.52
2017-04-22T03:26:13.291Z,19.52
2017-04-22T03:27:10.958Z,19.51
2017-04-22T03:28:12.208Z,19.52
2017-04-22T03:29:13.611Z,19.52
2017-04-22T03:30:11.493Z,19.52
2017-04-22T03:31:12.792Z,19.52
2017-04-22T03:32:12.331Z,19.52
2017-04-22T03:33:13.307Z,19.53
2017-04-22T03:34:13.534Z,19.52
2017-04-22T03:35:12.647Z,19.52
2017-04-22T03:36:12.489Z,19.52
2017-04-22T03:37:14.597Z,19.52
2017-04-22T03:38:12.622Z,19.52
2017-04-22T03:39:12.273Z,19.52
2017-04-22T03:40:13.217Z,19.53
2017-04-22T03:41:12.833Z,19.57
2017-04-22T03:42:11.970Z,19.53
2017-04-22T03:43:12.270Z,19.53
2017-04-22T03:44:13.476Z,19.53
2017-04-22T03:45:13.306Z,19.53
2017-04-22T03:46:10.978Z,19.52
2017-04-22T03:47:14.791Z,20.06
2017-04-22T03:48:12.402Z,19.81
2017-04-22T03:49:12.911Z,19.63
2017-04-22T03:50:11.911Z,19.76
2017-04-22T03:51:12.672Z,19.60
2017-04-22T03:52:10.516Z,19.56
2017-04-22T03:53:12.753Z,19.56
2017-04-22T03:54:12.770Z,19.55
2017-04-22T03:55:12.411Z,19.54
2017-04-22T03:56:13.180Z,19.54
2017-04-22T03:57:14.147Z,19.55
2017-04-22T03:58:12.341Z,19.54
2017-04-22T03:59:12.404Z,19.54
2017-04-22T04:00:09.564Z,19.54
2017-04-22T04:01:11.583Z,19.54
2017-04-22T04:02:10.992Z,19.54
2017-04-22T04:03:12.663Z,19.54
2017-04-22T04:04:11.800Z,19.54
2017-04-22T04:05:12.104Z,19.54
2017-04-22T04:06:13.314Z,19.55
2017-04-22T04:07:12.427Z,19.54
2017-04-22T04:08:12.706Z,19.54
2017-04-22T04:09:10.616Z,19.54
2017-04-22T04:10:11.817Z,20.09
2017-04-22T04:11:13.495Z,20.13
2017-04-22T04:12:12.602Z,20.15
2017-04-22T04:13:11.667Z,20.17
2017-04-22T04:14:11.825Z,20.17
2017-04-22T04:15:12.677Z,20.18
2017-04-22T04:16:12.485Z,19.67
2017-04-22T04:17:13.517Z,19.60
2017-04-22T04:18:12.614Z,19.60
2017-04-22T04:19:10.806Z,19.56
2017-04-22T04:20:12.276Z,19.56
2017-04-22T04:21:11.837Z,19.54
2017-04-22T04:22:13.189Z,19.56
2017-04-22T04:23:11.077Z,19.55
2017-04-22T04:24:14.046Z,19.56
2017-04-22T04:25:17.339Z,19.55
2017-04-22T04:26:15.895Z,19.55
2017-04-22T04:27:12.404Z,19.56
2017-04-22T04:28:14.483Z,19.55
2017-04-22T04:29:12.415Z,19.55
2017-04-22T04:30:13.217Z,19.55
2017-04-22T04:31:12.228Z,19.55
2017-04-22T04:32:13.179Z,19.56
2017-04-22T04:33:12.554Z,19.60
2017-04-22T04:34:12.896Z,19.59
2017-04-22T04:35:11.868Z,19.55
2017-04-22T04:36:12.433Z,19.62
2017-04-22T04:37:12.405Z,19.55
2017-04-22T04:38:11.428Z,19.55
2017-04-22T04:39:11.786Z,19.55
2017-04-22T04:40:13.251Z,19.55
2017-04-22T04:41:12.238Z,19.56
2017-04-22T04:42:12.582Z,19.55
2017-04-22T04:43:11.485Z,19.56
2017-04-22T04:44:13.575Z,19.56
2017-04-22T04:45:12.546Z,19.56
2017-04-22T04:46:13.421Z,19.56
2017-04-22T04:47:13.185Z,19.56
2017-04-22T04:48:12.233Z,19.55
2017-04-22T04:49:13.887Z,19.56
2017-04-22T04:50:12.651Z,19.56
2017-04-22T04:51:10.240Z,19.55
2017-04-22T04:52:12.566Z,19.56
2017-04-22T04:53:13.477Z,19.55
2017-04-22T04:54:12.600Z,19.56
2017-04-22T04:55:12.355Z,19.56
2017-04-22T04:56:11.127Z,19.55
2017-04-22T04:57:14.132Z,19.57
2017-04-22T04:58:10.966Z,19.56
2017-04-22T04:59:12.919Z,19.56
2017-04-22T05:00:12.599Z,19.56
2017-04-22T05:01:09.715Z,19.56
2017-04-22T05:02:14.017Z,19.56
2017-04-22T05:03:12.714Z,19.62
2017-04-22T05:04:12.622Z,19.57
2017-04-22T05:05:11.644Z,19.56
2017-04-22T05:06:11.752Z,19.57
2017-04-22T05:07:11.898Z,19.57
2017-04-22T05:08:12.898Z,19.57
2017-04-22T05:09:12.518Z,19.56
2017-04-22T05:10:13.880Z,19.56
2017-04-22T05:11:12.013Z,19.57
2017-04-22T05:12:12.234Z,19.57
2017-04-22T05:13:12.340Z,19.57
2017-04-22T05:14:13.219Z,19.61
2017-04-22T05:15:12.406Z,19.56
2017-04-22T05:16:10.344Z,19.56
2017-04-22T05:17:11.948Z,19.57
2017-04-22T05:18:13.111Z,19.56
2017-04-22T05:19:12.778Z,19.61
2017-04-22T05:20:11.785Z,19.56
2017-04-22T05:21:12.194Z,19.57
2017-04-22T05:22:13.337Z,19.57
2017-04-22T05:23:11.018Z,19.57
2017-04-22T05:24:12.765Z,19.56
2017-04-22T05:25:11.696Z,19.57
2017-04-22T05:26:12.219Z,19.60
2017-04-22T05:27:12.821Z,19.56
2017-04-22T05:28:11.848Z,19.57
2017-04-22T05:29:12.721Z,19.57
2017-04-22T05:30:11.813Z,19.57
2017-04-22T05:31:13.143Z,19.57
2017-04-22T05:32:12.352Z,19.57
2017-04-22T05:33:12.406Z,19.57
2017-04-22T05:34:12.519Z,19.57
2017-04-22T05:35:12.553Z,19.56
2017-04-22T05:36:11.621Z,19.57
2017-04-22T05:37:12.012Z,19.61
2017-04-22T05:38:12.564Z,19.62
2017-04-22T05:39:13.225Z,19.57
2017-04-22T05:40:10.994Z,19.57
2017-04-22T05:41:12.822Z,20.11
2017-04-22T05:42:12.834Z,20.16
2017-04-22T05:43:12.564Z,20.18
2017-04-22T05:44:09.089Z,20.18
2017-04-22T05:45:11.987Z,20.20
2017-04-22T05:46:12.799Z,20.21
2017-04-22T05:47:12.022Z,19.86
2017-04-22T05:48:12.875Z,19.68
2017-04-22T05:49:11.873Z,19.63
2017-04-22T05:50:12.010Z,19.61
2017-04-22T05:51:11.991Z,19.60
2017-04-22T05:52:12.060Z,19.59
2017-04-22T05:53:13.371Z,19.58
2017-04-22T05:54:12.866Z,19.61
2017-04-22T05:55:12.634Z,19.78
2017-04-22T05:56:12.270Z,19.63
2017-04-22T05:57:12.218Z,19.61
2017-04-22T05:58:13.078Z,19.60
2017-04-22T05:59:12.311Z,19.59
2017-04-22T06:00:09.640Z,19.58
2017-04-22T06:01:12.329Z,19.62
2017-04-22T06:02:13.220Z,19.60
2017-04-22T06:03:10.915Z,19.58
2017-04-22T06:04:13.458Z,19.58
2017-04-22T06:05:13.390Z,19.59
2017-04-22T06:06:10.945Z,19.58
2017-04-22T06:07:11.316Z,19.57
2017-04-22T06:08:13.712Z,19.65
2017-04-22T06:09:12.062Z,19.58
2017-04-22T06:10:13.498Z,19.58
2017-04-22T06:11:11.767Z,19.58
2017-04-22T06:12:12.586Z,19.58
2017-04-22T06:13:11.643Z,19.58
2017-04-22T06:14:11.849Z,19.58
2017-04-22T06:15:13.465Z,19.58
2017-04-22T06:16:13.257Z,19.58
2017-04-22T06:17:12.533Z,19.58
2017-04-22T06:18:10.524Z,19.57
2017-04-22T06:19:11.469Z,19.59
2017-04-22T06:20:12.618Z,19.58
2017-04-22T06:21:11.746Z,19.58
2017-04-22T06:22:12.695Z,19.58
2017-04-22T06:23:11.829Z,19.59
2017-04-22T06:24:12.616Z,19.62
2017-04-22T06:25:12.606Z,19.59
2017-04-22T06:26:12.206Z,19.66
2017-04-22T06:27:12.409Z,20.11
2017-04-22T06:28:12.505Z,20.17
2017-04-22T06:29:14.208Z,20.20
2017-04-22T06:30:12.263Z,20.20
2017-04-22T06:31:12.287Z,20.22
2017-04-22T06:32:12.966Z,20.24
2017-04-22T06:33:11.949Z,20.23
2017-04-22T06:34:12.354Z,20.22
2017-04-22T06:35:14.205Z,19.87
2017-04-22T06:36:13.848Z,19.70
2017-04-22T06:37:14.540Z,19.63
2017-04-22T06:38:12.944Z,19.62
2017-04-22T06:39:13.744Z,19.60
2017-04-22T06:40:10.431Z,19.61
2017-04-22T06:41:11.857Z,20.13
2017-04-22T06:42:12.577Z,19.67
2017-04-22T06:43:11.611Z,19.61
2017-04-22T06:44:10.436Z,19.60
2017-04-22T06:45:12.334Z,20.12
2017-04-22T06:46:11.174Z,20.18
2017-04-22T06:47:12.839Z,20.21
2017-04-22T06:48:12.814Z,20.22
2017-04-22T06:49:09.851Z,20.22
2017-04-22T06:50:12.423Z,20.22
2017-04-22T06:51:12.399Z,20.23
2017-04-22T06:52:12.522Z,20.23
2017-04-22T06:53:12.598Z,19.91
2017-04-22T06:54:12.615Z,19.70
2017-04-22T06:55:11.792Z,19.65
2017-04-22T06:56:11.911Z,19.62
2017-04-22T06:57:12.585Z,19.61
2017-04-22T06:58:13.420Z,19.60
2017-04-22T06:59:14.120Z,19.60
2017-04-22T07:00:14.874Z,19.59
2017-04-22T07:01:13.744Z,19.59
2017-04-22T07:02:12.595Z,19.59
2017-04-22T07:03:12.016Z,19.63
2017-04-22T07:04:12.151Z,19.60
2017-04-22T07:05:12.439Z,19.60
2017-04-22T07:06:12.461Z,19.60
2017-04-22T07:07:13.058Z,19.59
2017-04-22T07:08:12.205Z,19.60
2017-04-22T07:09:12.300Z,19.60
2017-04-22T07:10:13.024Z,19.58
2017-04-22T07:11:12.006Z,19.60
2017-04-22T07:12:12.505Z,19.64
2017-04-22T07:13:12.514Z,19.59
2017-04-22T07:14:12.655Z,19.60
2017-04-22T07:15:13.570Z,19.59
2017-04-22T07:16:13.210Z,19.59
2017-04-22T07:17:12.806Z,20.13
2017-04-22T07:18:12.435Z,20.17
2017-04-22T07:19:14.570Z,20.21
2017-04-22T07:20:12.382Z,19.69
2017-04-22T07:21:12.894Z,19.71
2017-04-22T07:22:11.747Z,19.62
2017-04-22T07:23:13.089Z,19.61
2017-04-22T07:24:12.824Z,19.61
2017-04-22T07:25:13.176Z,19.60
2017-04-22T07:26:14.044Z,19.60
2017-04-22T07:27:13.078Z,19.60
2017-04-22T07:28:12.302Z,19.60
2017-04-22T07:29:17.940Z,19.60
2017-04-22T07:30:12.788Z,19.60
2017-04-22T07:31:11.784Z,19.60
2017-04-22T07:32:10.394Z,19.60
2017-04-22T07:33:12.090Z,19.66
2017-04-22T07:34:12.497Z,19.64
2017-04-22T07:35:13.331Z,19.61
2017-04-22T07:36:13.101Z,19.62
2017-04-22T07:37:12.304Z,19.60
2017-04-22T07:38:11.176Z,19.60
2017-04-22T07:39:12.402Z,19.61
2017-04-22T07:40:13.008Z,19.61
2017-04-22T07:41:14.772Z,19.61
2017-04-22T07:42:11.784Z,19.61
2017-04-22T07:43:14.215Z,19.61
2017-04-22T07:44:12.296Z,19.60
2017-04-22T07:45:13.113Z,19.61
2017-04-22T07:46:12.065Z,19.61
2017-04-22T07:47:12.226Z,19.62
2017-04-22T07:48:12.843Z,19.65
2017-04-22T07:49:11.796Z,19.62
2017-04-22T07:50:11.936Z,19.61
2017-04-22T07:51:12.867Z,19.61
2017-04-22T07:52:14.709Z,19.61
2017-04-22T07:53:11.693Z,19.61
2017-04-22T07:54:12.234Z,19.63
2017-04-22T07:55:12.219Z,19.62
2017-04-22T07:56:12.074Z,19.62
2017-04-22T07:57:13.863Z,19.61
2017-04-22T07:58:11.857Z,19.61
2017-04-22T07:59:12.455Z,19.61
2017-04-22T08:00:14.120Z,19.62
2017-04-22T08:01:13.047Z,19.61
2017-04-22T08:02:12.815Z,19.61
2017-04-22T08:03:13.432Z,19.61
2017-04-22T08:04:12.593Z,19.62
2017-04-22T08:05:13.572Z,19.62
2017-04-22T08:06:13.318Z,19.62
2017-04-22T08:07:13.277Z,19.62
2017-04-22T08:08:12.993Z,19.64
2017-04-22T08:09:12.308Z,19.62
2017-04-22T08:10:12.905Z,19.66
2017-04-22T08:11:12.770Z,20.15
2017-04-22T08:12:12.476Z,20.20
2017-04-22T08:13:13.247Z,19.92
2017-04-22T08:14:12.959Z,19.71
2017-04-22T08:15:12.698Z,19.66
2017-04-22T08:16:12.401Z,19.64
2017-04-22T08:17:13.392Z,19.63
2017-04-22T08:18:11.674Z,19.63
2017-04-22T08:19:12.443Z,19.65
2017-04-22T08:20:14.273Z,19.63
2017-04-22T08:21:13.513Z,19.69
2017-04-22T08:22:12.292Z,19.63
2017-04-22T08:23:13.538Z,19.63
2017-04-22T08:24:13.685Z,19.63
2017-04-22T08:25:12.566Z,19.63
2017-04-22T08:26:11.712Z,19.63
2017-04-22T08:27:11.797Z,19.64
2017-04-22T08:28:11.844Z,19.64
2017-04-22T08:29:12.853Z,19.63
2017-04-22T08:30:12.427Z,19.64
2017-04-22T08:31:14.100Z,19.64
2017-04-22T08:32:11.954Z,19.64
2017-04-22T08:33:12.348Z,19.64
2017-04-22T08:34:12.840Z,19.70
2017-04-22T08:35:21.963Z,19.64
2017-04-22T08:36:14.481Z,19.65
2017-04-22T08:37:13.222Z,19.64
2017-04-22T08:38:13.884Z,19.65
2017-04-22T08:39:12.151Z,19.65
2017-04-22T08:40:18.749Z,19.64
2017-04-22T08:41:12.547Z,19.64
2017-04-22T08:42:12.858Z,19.65
2017-04-22T08:43:10.412Z,19.64
2017-04-22T08:44:11.954Z,19.65
2017-04-22T08:45:12.179Z,19.65
2017-04-22T08:46:13.200Z,19.65
2017-04-22T08:47:13.054Z,19.65
2017-04-22T08:48:11.954Z,19.65
2017-04-22T08:49:14.871Z,19.65
2017-04-22T08:50:11.952Z,19.65
2017-04-22T08:51:12.329Z,19.66
2017-04-22T08:52:13.636Z,19.65
2017-04-22T08:53:10.500Z,19.65
2017-04-22T08:54:12.833Z,19.66
2017-04-22T08:55:11.881Z,19.65
2017-04-22T08:56:12.020Z,19.66
2017-04-22T08:57:11.918Z,19.66
2017-04-22T08:58:12.581Z,19.70
2017-04-22T08:59:11.504Z,19.66
2017-04-22T09:00:13.156Z,19.66
2017-04-22T09:01:12.277Z,19.66
2017-04-22T09:02:10.433Z,19.65
2017-04-22T09:03:10.411Z,19.66
2017-04-22T09:04:12.567Z,20.20
2017-04-22T09:05:11.662Z,20.24
2017-04-22T09:06:12.851Z,20.29
2017-04-22T09:07:11.838Z,20.30
2017-04-22T09:08:12.239Z,20.30
2017-04-22T09:09:10.907Z,20.31
2017-04-22T09:10:12.750Z,20.30
2017-04-22T09:11:13.356Z,20.32
2017-04-22T09:12:13.243Z,20.31
2017-04-22T09:13:12.223Z,20.32
2017-04-22T09:14:13.133Z,19.99
2017-04-22T09:15:19.303Z,19.78
2017-04-22T09:16:12.533Z,19.72
2017-04-22T09:17:13.281Z,19.71
2017-04-22T09:18:12.983Z,19.72
2017-04-22T09:19:11.907Z,19.69
2017-04-22T09:20:12.828Z,19.69
2017-04-22T09:21:12.603Z,19.68
2017-04-22T09:22:12.151Z,19.73
2017-04-22T09:23:12.213Z,19.68
2017-04-22T09:24:14.043Z,19.69
2017-04-22T09:25:12.266Z,19.68
2017-04-22T09:26:13.288Z,19.69
2017-04-22T09:27:13.181Z,19.69
2017-04-22T09:28:12.383Z,19.69
2017-04-22T09:29:13.084Z,19.73
2017-04-22T09:30:12.049Z,19.69
2017-04-22T09:31:14.658Z,19.69
2017-04-22T09:32:11.713Z,19.69
2017-04-22T09:33:11.702Z,19.69
2017-04-22T09:34:12.730Z,19.69
2017-04-22T09:35:11.736Z,19.69
2017-04-22T09:36:13.521Z,19.68
2017-04-22T09:37:13.217Z,19.69
2017-04-22T09:38:12.318Z,19.68
2017-04-22T09:39:14.583Z,19.68
2017-04-22T09:40:13.384Z,19.69
2017-04-22T09:41:13.216Z,19.68
2017-04-22T09:42:12.549Z,19.69
2017-04-22T09:43:13.310Z,19.69
2017-04-22T09:44:12.559Z,19.70
2017-04-22T09:45:14.544Z,19.69
2017-04-22T09:46:13.331Z,19.69
2017-04-22T09:47:12.545Z,19.70
2017-04-22T09:48:13.701Z,19.70
2017-04-22T09:49:12.270Z,19.72
2017-04-22T09:50:13.022Z,19.70
2017-04-22T09:51:12.044Z,19.71
2017-04-22T09:52:09.455Z,19.70
2017-04-22T09:53:11.639Z,19.70
2017-04-22T09:54:12.062Z,19.77
2017-04-22T09:55:12.218Z,19.70
2017-04-22T09:56:12.889Z,19.70
2017-04-22T09:57:11.968Z,19.71
2017-04-22T09:58:14.124Z,19.71
2017-04-22T09:59:12.406Z,19.71
2017-04-22T10:00:12.528Z,19.71
2017-04-22T10:01:13.410Z,19.71
2017-04-22T10:02:14.061Z,19.76
2017-04-22T10:03:10.986Z,19.70
2017-04-22T10:04:12.802Z,19.71
2017-04-22T10:05:12.398Z,19.71
2017-04-22T10:06:12.755Z,19.71
2017-04-22T10:07:12.217Z,19.71
2017-04-22T10:08:12.819Z,19.79
2017-04-22T10:09:11.855Z,19.70
2017-04-22T10:10:11.652Z,19.71
2017-04-22T10:11:11.803Z,19.71
2017-04-22T10:12:11.955Z,19.70
2017-04-22T10:13:11.854Z,19.71
2017-04-22T10:14:12.562Z,19.72
2017-04-22T10:15:11.783Z,19.71
2017-04-22T10:16:12.034Z,19.71
2017-04-22T10:17:12.583Z,19.71
2017-04-22T10:18:12.434Z,19.71
2017-04-22T10:19:12.624Z,19.71
2017-04-22T10:20:12.413Z,19.92
2017-04-22T10:21:12.626Z,19.77
2017-04-22T10:22:12.738Z,19.73
2017-04-22T10:23:12.469Z,19.79
2017-04-22T10:24:12.948Z,19.80
2017-04-22T10:25:12.115Z,19.72
2017-04-22T10:26:12.489Z,19.77
2017-04-22T10:27:10.649Z,19.71
2017-04-22T10:28:13.136Z,19.71
2017-04-22T10:29:12.909Z,19.74
2017-04-22T10:30:11.863Z,19.71
2017-04-22T10:31:13.004Z,19.71
2017-04-22T10:32:12.158Z,19.71
2017-04-22T10:33:12.845Z,19.75
2017-04-22T10:34:15.377Z,19.70
2017-04-22T10:35:14.055Z,19.71
2017-04-22T10:36:13.786Z,19.71
2017-04-22T10:37:14.632Z,19.70
2017-04-22T10:38:12.441Z,19.71
2017-04-22T10:39:12.477Z,19.71
2017-04-22T10:40:13.271Z,19.71
2017-04-22T10:41:12.900Z,19.71
2017-04-22T10:42:12.526Z,19.71
2017-04-22T10:43:12.787Z,19.72
2017-04-22T10:44:12.030Z,19.71
2017-04-22T10:45:10.866Z,19.71
2017-04-22T10:46:12.152Z,19.71
2017-04-22T10:47:12.801Z,19.71
2017-04-22T10:48:12.552Z,19.72
2017-04-22T10:49:10.706Z,19.70
2017-04-22T10:50:12.192Z,19.71
2017-04-22T10:51:12.093Z,19.71
2017-04-22T10:52:12.101Z,19.70
2017-04-22T10:53:10.853Z,19.71
2017-04-22T10:54:12.929Z,19.92
2017-04-22T10:55:12.233Z,19.77
2017-04-22T10:56:12.963Z,19.74
2017-04-22T10:57:11.796Z,19.73
2017-04-22T10:58:11.866Z,19.72
2017-04-22T10:59:13.571Z,19.72
2017-04-22T11:00:12.248Z,19.77
2017-04-22T11:01:12.323Z,19.72
2017-04-22T11:02:13.912Z,19.73
2017-04-22T11:03:13.521Z,19.73
2017-04-22T11:04:09.953Z,19.71
2017-04-22T11:05:12.347Z,19.75
2017-04-22T11:06:11.053Z,19.74
2017-04-22T11:07:12.564Z,19.76
2017-04-22T11:08:11.103Z,19.76
2017-04-22T11:09:13.069Z,19.84
2017-04-22T11:10:10.795Z,19.78
2017-04-22T11:11:12.788Z,19.86
2017-04-22T11:12:13.410Z,19.80
2017-04-22T11:13:10.454Z,19.80
2017-04-22T11:14:11.854Z,19.81
2017-04-22T11:15:11.844Z,19.80
2017-04-22T11:16:12.034Z,19.80
2017-04-22T11:17:12.723Z,19.85
2017-04-22T11:18:12.235Z,19.84
2017-04-22T11:19:12.268Z,19.83
2017-04-22T11:20:11.200Z,19.83
2017-04-22T11:21:13.987Z,20.37
2017-04-22T11:22:12.075Z,20.42
2017-04-22T11:23:12.012Z,20.45
2017-04-22T11:24:12.038Z,20.47
2017-04-22T11:25:12.642Z,20.49
2017-04-22T11:26:11.717Z,20.49
2017-04-22T11:27:12.582Z,20.49
2017-04-22T11:28:11.626Z,19.98
2017-04-22T11:29:11.583Z,19.93
2017-04-22T11:30:10.437Z,19.91
2017-04-22T11:31:13.376Z,19.90
2017-04-22T11:32:12.907Z,19.90
2017-04-22T11:33:12.608Z,19.91
2017-04-22T11:34:12.236Z,19.89
2017-04-22T11:35:13.936Z,19.90
2017-04-22T11:36:12.467Z,19.94
2017-04-22T11:37:13.900Z,19.89
2017-04-22T11:38:12.462Z,19.85
2017-04-22T11:39:13.294Z,19.82
2017-04-22T11:40:12.933Z,19.80
2017-04-22T11:41:11.940Z,19.79
2017-04-22T11:42:12.756Z,19.78
2017-04-22T11:43:11.896Z,19.77
2017-04-22T11:44:12.654Z,19.77
2017-04-22T11:45:12.069Z,19.78
2017-04-22T11:46:12.036Z,19.77
2017-04-22T11:47:12.541Z,19.78
2017-04-22T11:48:13.459Z,19.78
2017-04-22T11:49:13.259Z,19.79
2017-04-22T11:50:13.041Z,19.79
2017-04-22T11:51:13.866Z,19.78
2017-04-22T11:52:12.256Z,19.82
2017-04-22T11:53:12.472Z,19.78
2017-04-22T11:54:13.689Z,19.77
2017-04-22T11:55:12.537Z,19.78
2017-04-22T11:56:12.594Z,19.79
2017-04-22T11:57:11.915Z,19.79
2017-04-22T11:58:12.678Z,19.78
2017-04-22T11:59:12.449Z,19.78
2017-04-22T12:00:11.518Z,19.78
2017-04-22T12:01:13.164Z,19.84
2017-04-22T12:02:12.878Z,19.78
2017-04-22T12:03:11.932Z,19.77
2017-04-22T12:04:13.586Z,19.77
2017-04-22T12:05:11.736Z,19.76
2017-04-22T12:06:12.528Z,19.80
2017-04-22T12:07:14.406Z,19.76
2017-04-22T12:08:12.471Z,19.77
2017-04-22T12:09:12.617Z,19.77
2017-04-22T12:10:12.490Z,19.77
2017-04-22T12:11:12.434Z,19.78
2017-04-22T12:12:12.910Z,19.83
2017-04-22T12:13:10.748Z,19.76
2017-04-22T12:14:12.562Z,19.78
2017-04-22T12:15:12.529Z,19.82
2017-04-22T12:16:13.378Z,19.79
2017-04-22T12:17:13.443Z,19.78
2017-04-22T12:18:12.586Z,19.78
2017-04-22T12:19:12.576Z,19.78
2017-04-22T12:20:11.511Z,19.79
2017-04-22T12:21:12.391Z,19.80
2017-04-22T12:22:12.945Z,19.79
2017-04-22T12:23:11.857Z,19.79
2017-04-22T12:24:14.455Z,19.81
2017-04-22T12:25:12.621Z,19.79
2017-04-22T12:26:13.317Z,19.79
2017-04-22T12:27:13.265Z,19.79
2017-04-22T12:28:10.545Z,19.79
2017-04-22T12:29:11.608Z,20.31
2017-04-22T12:30:11.744Z,20.03
2017-04-22T12:31:11.959Z,19.87
2017-04-22T12:32:12.013Z,19.82
2017-04-22T12:33:12.106Z,19.81
2017-04-22T12:34:12.199Z,19.80
2017-04-22T12:35:12.800Z,19.80
2017-04-22T12:36:12.857Z,19.80
2017-04-22T12:37:12.442Z,19.81
2017-04-22T12:38:13.847Z,19.79
2017-04-22T12:39:11.887Z,19.79
2017-04-22T12:40:11.950Z,19.79
2017-04-22T12:41:12.698Z,19.84
2017-04-22T12:42:11.668Z,19.79
2017-04-22T12:43:12.215Z,19.81
2017-04-22T12:44:12.812Z,19.79
2017-04-22T12:45:12.479Z,19.79
2017-04-22T12:46:14.289Z,19.79
2017-04-22T12:47:13.059Z,19.81
2017-04-22T12:48:13.818Z,19.79
2017-04-22T12:49:12.648Z,19.79
2017-04-22T12:50:11.776Z,19.79
2017-04-22T12:51:09.863Z,19.79
2017-04-22T12:52:13.145Z,19.80